Share

Whitney, NE (69367)

2:01 PM MDT on April 24, 2014 (GMT -0600)
Chadron Municipal (KCDR) Elev 3297 ft | 42.84 °N, 103.10 °W | Change Station

Current weather conditions updated 8 minutes ago

Clear
Clear
65 °F
Feels Like 65 °F
N
13
Wind Variable Wind from WNW
Gusts 23 mph
Sunrise 5:57 AM
Sunset 7:45 PM
Moon Waning Crescent

Today is forecast to be Cooler than yesterday.

Pressure 29.83 in
Visibility 10.0 miles
Clouds Clear
Dew Point 22 °F
Humidity 19%
Rainfall 0.00 in
Snow Depth Not available.
UV 10 out of 16
Pollen 10.40 out of 12
Air Quality Not available.
Flu Activity Sporadic
METAR KCDR 241953Z AUTO 30011G20KT 10SM CLR 18/M06 A2982 RMK AO2 SLP099 T01831056

More Conditions Fewer Conditions

Pressure 29.83 in
Visibility 10.0 miles
Clouds Clear
Dew Point 22 °F
Humidity 19%
Rainfall 0.00 in
Snow Depth Not available.
UV 10 out of 16
Pollen 10.40 out of 12
Air Quality Not available.
Flu Activity Sporadic
METAR KCDR 241953Z AUTO 30011G20KT 10SM CLR 18/M06 A2982 RMK AO2 SLP099 T01831056

More Conditions Fewer Conditions

10-Day Weather Forecast

Almanac

Astronomy

Apr. 24, 2014 Rise Set
Actual Time 5:57 AM MDT 7:45 PM MDT
Civil Twilight 5:27 AM MDT 8:15 PM MDT
Nautical Twilight 4:50 AM MDT 8:52 PM MDT
Astronomical Twilight 4:10 AM MDT 9:32 PM MDT
Moon 3:16 AM MDT 2:57 PM MDT
Length of Visible Light 14h 48m
Length of Day
13h 48m
Tomorrow will be 2m 38s longer.
Waning Crescent, 23% of the Moon is Illuminated
Today
Waning Crescent
Apr 29
New
May 6
First Quarter
May 14
Full
May 21
Last Quarter

Today's Extremes

State Highs State Lows

Community

  • Sunset at Apalachicola Bay, Florida
    Sunset at Apalachicola Bay, Florida
  • Clouds mov'n in
    Clouds mov'n in
  • Stacked
    Stacked
  • clouds approaching Red Sox Nation
    clouds approaching Red Sox Nation
  • Balance
    Balance

WunderPhotos

Upload Photos

1,704,713 photos uploaded!

Nearby

Snow Depth

Station Depth Elevation
No new snow has been reported.

Coastal Water Temperatures

Place Temperature
No Stations Reporting

Earthquake Activity

City Distance Mag. Time & Date
No recent earthquake activity has been reported nearby.
Minimum magnitude displayed is 2.5.

Nearby Weather Stations

Station Location Temp. Dew Point Humidity Wind Precip. Elev Updated Type
Bill and Corena's Backyard, Chadron, NE 64.2 °F 26 °F 23% WSW  at  7.0 mph 0.00 in / hr 3367 ft 2:01 PM MDT Rapid Fire
RAWS KINGS CANYON NE, Chadron, NE 59 °F 14 °F 17% West  at  14 mph 0.00 in / hr 4080 ft 1:22 PM MDT MADIS

Show More Stations Show Fewer Stations

What do you think?

We're not finished. Please let us know what you like, what you don't like, and what you are still missing.